createdAt,value
2018-12-07T00:00:23.252Z,100638.17
2018-12-07T00:02:57.328Z,100632.48
2018-12-07T00:05:28.520Z,100629.20
2018-12-07T00:07:59.276Z,100625.09
2018-12-07T00:10:30.339Z,100615.84
2018-12-07T00:13:01.130Z,100612.82
2018-12-07T00:15:32.746Z,100618.77
2018-12-07T00:18:02.571Z,100610.08
2018-12-07T00:20:33.604Z,100604.92
2018-12-07T00:23:05.205Z,100604.09
2018-12-07T00:25:36.856Z,100598.06
2018-12-07T00:28:07.896Z,100593.41
2018-12-07T00:30:38.672Z,100599.94
2018-12-07T00:33:10.387Z,100595.61
2018-12-07T00:35:41.610Z,100595.14
2018-12-07T00:38:13.011Z,100597.88
2018-12-07T00:40:43.952Z,100595.58
2018-12-07T00:43:15.575Z,100595.61
2018-12-07T00:45:48.924Z,100584.20
2018-12-07T00:48:20.241Z,100572.56
2018-12-07T00:50:51.806Z,100577.03
2018-12-07T00:53:25.080Z,100576.52
2018-12-07T00:55:58.810Z,100569.38
2018-12-07T00:58:30.416Z,100568.01
2018-12-07T01:01:01.937Z,100564.47
2018-12-07T01:03:33.364Z,100559.27
2018-12-07T01:06:04.866Z,100559.27
2018-12-07T01:08:36.508Z,100563.89
2018-12-07T01:11:08.372Z,100566.48
2018-12-07T01:13:40.103Z,100564.61
2018-12-07T01:16:13.344Z,100564.09
2018-12-07T01:18:44.661Z,100563.48
2018-12-07T01:21:15.832Z,100561.09
2018-12-07T01:23:46.720Z,100556.70
2018-12-07T01:26:17.792Z,100553.41
2018-12-07T01:28:49.595Z,100548.76
2018-12-07T01:31:20.600Z,100544.64
2018-12-07T01:33:52.320Z,100549.88
2018-12-07T01:36:23.296Z,100550.41
2018-12-07T01:38:54.290Z,100542.48
2018-12-07T01:41:27.524Z,100538.62
2018-12-07T01:43:58.832Z,100536.95
2018-12-07T01:46:30.727Z,100535.62
2018-12-07T01:49:02.556Z,100537.28
2018-12-07T01:51:36.156Z,100533.39
2018-12-07T01:54:07.202Z,100535.91
2018-12-07T01:56:36.948Z,100538.11
2018-12-07T01:59:08.585Z,100532.40
2018-12-07T02:01:39.722Z,100521.11
2018-12-07T02:04:10.505Z,100525.83
2018-12-07T02:06:41.390Z,100520.88
2018-12-07T02:09:13.243Z,100522.73
2018-12-07T02:11:45.003Z,100515.08
2018-12-07T02:14:16.762Z,100508.23
2018-12-07T02:16:51.141Z,100506.62
2018-12-07T02:19:24.792Z,100491.77
2018-12-07T02:21:54.088Z,100490.17
2018-12-07T02:24:29.768Z,100484.41
2018-12-07T02:27:01.032Z,100481.95
2018-12-07T02:29:35.384Z,100483.80
2018-12-07T02:32:06.844Z,100483.03
2018-12-07T02:34:37.667Z,100486.00
2018-12-07T02:37:07.464Z,100480.03
2018-12-07T02:39:39.008Z,100479.20
2018-12-07T02:42:09.970Z,100469.55
2018-12-07T02:44:41.597Z,100476.17
2018-12-07T02:47:17.164Z,100463.23
2018-12-07T02:49:50.911Z,100464.89
2018-12-07T02:52:22.271Z,100469.89
2018-12-07T02:54:53.188Z,100470.92
2018-12-07T03:00:28.635Z,100461.32
2018-12-07T03:03:02.092Z,100464.13
2018-12-07T03:05:33.571Z,100458.92
2018-12-07T03:08:07.049Z,100467.17
2018-12-07T03:10:38.360Z,100455.61
2018-12-07T03:13:10.139Z,100447.15
2018-12-07T03:15:41.928Z,100442.47
2018-12-07T03:18:31.206Z,100446.30
2018-12-07T03:21:04.956Z,100437.81
2018-12-07T03:23:36.323Z,100438.35
2018-12-07T03:26:07.421Z,100424.95
2018-12-07T03:28:39.280Z,100422.73
2018-12-07T03:31:11.013Z,100422.49
2018-12-07T03:33:41.895Z,100423.01
2018-12-07T03:36:13.510Z,100418.98
2018-12-07T03:38:44.355Z,100423.35
2018-12-07T03:41:15.263Z,100415.69
2018-12-07T03:43:47.075Z,100408.01
2018-12-07T03:46:19.099Z,100399.23
2018-12-07T03:48:50.716Z,100406.95
2018-12-07T03:51:21.516Z,100409.87
2018-12-07T03:53:52.727Z,100402.52
2018-12-07T03:56:24.316Z,100399.31
2018-12-07T03:58:57.672Z,100404.44
2018-12-07T04:01:28.919Z,100399.80
2018-12-07T04:04:00.472Z,100398.98
2018-12-07T04:06:33.879Z,100390.48
2018-12-07T04:09:07.252Z,100392.95
2018-12-07T04:11:42.462Z,100395.20
2018-12-07T04:14:14.024Z,100389.45
2018-12-07T04:16:44.928Z,100391.39
2018-12-07T04:19:15.823Z,100386.09
2018-12-07T04:21:50.113Z,100388.89
2018-12-07T04:24:21.274Z,100385.60
2018-12-07T04:26:52.084Z,100380.97
2018-12-07T04:29:22.993Z,100381.48
2018-12-07T04:31:54.039Z,100377.38
2018-12-07T04:34:28.153Z,100373.20
2018-12-07T04:37:02.238Z,100367.95
2018-12-07T04:39:36.178Z,100368.83
2018-12-07T04:42:05.744Z,100360.78
2018-12-07T04:44:36.724Z,100362.20
2018-12-07T04:47:07.602Z,100356.92
2018-12-07T04:49:39.252Z,100354.47
2018-12-07T04:52:10.249Z,100351.18
2018-12-07T04:54:41.992Z,100355.19
2018-12-07T04:57:12.901Z,100359.48
2018-12-07T04:59:43.812Z,100360.03
2018-12-07T05:02:17.204Z,100355.86
2018-12-07T05:04:48.749Z,100350.58
2018-12-07T05:07:20.146Z,100344.56
2018-12-07T05:09:51.239Z,100350.94
2018-12-07T05:12:23.031Z,100344.59
2018-12-07T05:14:56.836Z,100341.45
2018-12-07T05:19:57.517Z,100340.80
2018-12-07T05:22:29.112Z,100333.06
2018-12-07T05:25:00.218Z,100333.20
2018-12-07T05:27:31.070Z,100318.73
2018-12-07T05:30:01.987Z,100328.00
2018-12-07T05:32:33.469Z,100317.84
2018-12-07T05:35:04.713Z,100330.56
2018-12-07T05:37:36.410Z,100326.23
2018-12-07T05:40:08.277Z,100325.09
2018-12-07T05:42:39.770Z,100327.98
2018-12-07T05:45:10.835Z,100314.07
2018-12-07T05:47:42.800Z,100315.44
2018-12-07T05:50:14.419Z,100324.20
2018-12-07T05:52:47.942Z,100312.64
2018-12-07T05:55:19.351Z,100315.06
2018-12-07T05:57:52.621Z,100300.03
2018-12-07T06:00:24.015Z,100303.05
2018-12-07T06:02:58.224Z,100309.88
2018-12-07T06:05:29.720Z,100307.33
2018-12-07T06:07:59.444Z,100302.08
2018-12-07T06:10:31.535Z,100305.38
2018-12-07T06:13:05.497Z,100311.37
2018-12-07T06:15:36.824Z,100308.76
2018-12-07T06:20:37.435Z,100305.64
2018-12-07T06:23:08.312Z,100306.38
2018-12-07T06:25:39.075Z,100299.59
2018-12-07T06:28:10.494Z,100299.08
2018-12-07T06:30:42.763Z,100299.81
2018-12-07T06:33:12.375Z,100296.53
2018-12-07T06:35:44.108Z,100297.59
2018-12-07T06:38:15.052Z,100291.60
2018-12-07T06:40:47.161Z,100282.78
2018-12-07T06:43:18.568Z,100283.89
2018-12-07T06:45:49.381Z,100289.94
2018-12-07T06:48:21.047Z,100291.82
2018-12-07T06:50:52.553Z,100288.83
2018-12-07T06:53:22.987Z,100285.84
2018-12-07T06:55:54.136Z,100281.16
2018-12-07T06:58:26.370Z,100275.63
2018-12-07T07:01:00.741Z,100285.55
2018-12-07T07:03:31.517Z,100280.08
2018-12-07T07:06:03.398Z,100276.51
2018-12-07T07:08:35.689Z,100274.50
2018-12-07T07:11:07.259Z,100280.33
2018-12-07T07:13:41.323Z,100287.20
2018-12-07T07:16:15.346Z,100288.48
2018-12-07T07:18:46.445Z,100295.27
2018-12-07T07:23:49.183Z,100287.53
2018-12-07T07:26:22.528Z,100288.58
2018-12-07T07:28:53.684Z,100286.61
2018-12-07T07:31:25.579Z,100285.94
2018-12-07T07:33:56.462Z,100278.08
2018-12-07T07:36:27.469Z,100271.39
2018-12-07T07:38:58.311Z,100273.23
2018-12-07T07:41:30.136Z,100263.47
2018-12-07T07:44:04.751Z,100265.27
2018-12-07T07:46:35.953Z,100257.64
2018-12-07T07:49:07.733Z,100257.03
2018-12-07T07:51:39.320Z,100250.92
2018-12-07T07:54:10.115Z,100246.53
2018-12-07T07:56:40.985Z,100243.22
2018-12-07T07:59:11.839Z,100240.70
2018-12-07T08:01:43.040Z,100226.20
2018-12-07T08:04:17.079Z,100226.70
2018-12-07T08:06:48.607Z,100215.57
2018-12-07T08:09:20.187Z,100222.31
2018-12-07T08:11:51.006Z,100223.94
2018-12-07T08:14:22.063Z,100214.84
2018-12-07T08:16:53.911Z,100212.73
2018-12-07T08:19:24.973Z,100200.74
2018-12-07T08:27:03.736Z,100195.24
2018-12-07T08:29:37.214Z,100188.38
2018-12-07T08:32:08.710Z,100186.84
2018-12-07T08:34:40.456Z,100194.16
2018-12-07T08:37:13.468Z,100191.23
2018-12-07T08:39:44.311Z,100189.35
2018-12-07T08:42:14.035Z,100195.08
2018-12-07T08:44:45.792Z,100190.98
2018-12-07T08:47:17.147Z,100172.11
2018-12-07T08:49:55.857Z,100179.20
2018-12-07T08:52:27.020Z,100175.39
2018-12-07T08:54:57.975Z,100163.48
2018-12-07T08:57:29.798Z,100159.16
2018-12-07T09:00:01.753Z,100157.19
2018-12-07T09:02:33.580Z,100161.12
2018-12-07T09:05:05.271Z,100150.09
2018-12-07T09:07:36.342Z,100155.66
2018-12-07T09:10:06.712Z,100150.73
2018-12-07T09:12:40.956Z,100145.48
2018-12-07T09:15:12.087Z,100140.61
2018-12-07T09:17:43.797Z,100147.88
2018-12-07T09:20:15.548Z,100150.30
2018-12-07T09:22:46.423Z,100140.75
2018-12-07T09:27:49.131Z,100122.88
2018-12-07T09:30:20.565Z,100121.51
2018-12-07T09:32:52.290Z,100118.01
2018-12-07T09:35:23.144Z,100104.52
2018-12-07T09:37:54.012Z,100114.19
2018-12-07T09:40:25.025Z,100115.50
2018-12-07T09:42:56.591Z,100112.28
2018-12-07T09:45:27.500Z,100095.77
2018-12-07T09:47:59.217Z,100099.16
2018-12-07T09:50:30.287Z,100102.98
2018-12-07T09:53:01.188Z,100091.03
2018-12-07T09:55:32.927Z,100079.80
2018-12-07T09:58:04.744Z,100074.81
2018-12-07T10:00:36.575Z,100089.64
2018-12-07T10:03:08.191Z,100077.33
2018-12-07T10:05:39.235Z,100074.22
2018-12-07T10:08:10.212Z,100063.84
2018-12-07T10:10:41.945Z,100069.14
2018-12-07T10:13:12.918Z,100057.56
2018-12-07T10:15:46.337Z,100055.43
2018-12-07T10:18:17.464Z,100051.63
2018-12-07T10:20:48.464Z,100049.77
2018-12-07T10:23:20.177Z,100047.33
2018-12-07T10:25:52.027Z,100037.81
2018-12-07T10:28:23.749Z,100030.92
2018-12-07T10:30:54.591Z,100023.81
2018-12-07T10:33:26.460Z,100013.13
2018-12-07T10:35:57.215Z,100017.57
2018-12-07T10:38:28.204Z,100011.81
2018-12-07T10:40:59.832Z,99985.69
2018-12-07T10:43:31.548Z,100000.88
2018-12-07T10:46:02.415Z,100006.36
2018-12-07T10:48:33.350Z,99979.25
2018-12-07T10:51:08.180Z,99986.17
2018-12-07T10:53:37.655Z,99979.27
2018-12-07T10:56:11.465Z,99966.19
2018-12-07T10:58:42.879Z,99956.75
2018-12-07T11:03:25.464Z,99957.63
2018-12-07T11:06:02.331Z,99939.85
2018-12-07T11:08:39.457Z,99949.78
2018-12-07T11:11:23.151Z,99932.75
2018-12-07T11:14:02.533Z,99925.36
2018-12-07T11:16:39.686Z,99942.72
2018-12-07T11:19:16.487Z,99929.86
2018-12-07T11:21:53.284Z,99934.80
2018-12-07T11:24:29.938Z,99925.28
2018-12-07T11:27:06.633Z,99924.13
2018-12-07T11:32:17.836Z,99916.04
2018-12-07T11:34:53.056Z,99897.13
2018-12-07T11:37:24.948Z,99893.80
2018-12-07T11:39:56.691Z,99881.04
2018-12-07T11:42:28.784Z,99873.65
2018-12-07T11:45:00.412Z,99860.17
2018-12-07T11:47:31.616Z,99853.93
2018-12-07T11:50:09.219Z,99854.17
2018-12-07T11:52:40.212Z,99846.61
2018-12-07T11:55:12.160Z,99843.25
2018-12-07T11:57:43.851Z,99826.00
2018-12-07T12:00:15.239Z,99824.89
2018-12-07T12:02:46.678Z,99812.91
2018-12-07T12:05:20.787Z,99806.61
2018-12-07T12:07:52.116Z,99808.52
2018-12-07T12:10:22.891Z,99801.14
2018-12-07T12:12:53.756Z,99796.75
2018-12-07T12:15:25.371Z,99786.08
2018-12-07T12:17:57.155Z,99790.95
2018-12-07T12:20:29.210Z,99789.07
2018-12-07T12:23:00.158Z,99782.51
2018-12-07T12:25:31.020Z,99782.02
2018-12-07T12:28:04.434Z,99774.88
2018-12-07T12:33:06.572Z,99760.04
2018-12-07T12:35:37.520Z,99753.70
2018-12-07T12:38:09.260Z,99746.27
2018-12-07T12:40:40.096Z,99753.64
2018-12-07T12:43:11.006Z,99742.14
2018-12-07T12:45:41.907Z,99738.49
2018-12-07T12:48:13.781Z,99740.30
2018-12-07T12:50:45.372Z,99728.25
2018-12-07T12:53:16.438Z,99726.81
2018-12-07T12:55:48.304Z,99710.95
2018-12-07T12:58:19.107Z,99710.89
2018-12-07T13:00:50.110Z,99705.64
2018-12-07T13:03:21.797Z,99697.16
2018-12-07T13:05:52.839Z,99680.41
2018-12-07T13:08:23.631Z,99688.06
2018-12-07T13:10:55.358Z,99676.84
2018-12-07T13:13:27.148Z,99681.66
2018-12-07T13:15:57.991Z,99665.24
2018-12-07T13:18:28.763Z,99669.84
2018-12-07T13:21:02.155Z,99659.72
2018-12-07T13:23:35.947Z,99654.80
2018-12-07T13:26:07.433Z,99639.20
2018-12-07T13:28:38.370Z,99642.21
2018-12-07T13:31:12.459Z,99635.93
2018-12-07T13:36:16.841Z,99616.45
2018-12-07T13:38:48.034Z,99613.16
2018-12-07T13:41:19.978Z,99606.86
2018-12-07T13:43:51.660Z,99605.23
2018-12-07T13:46:22.636Z,99600.80
2018-12-07T13:48:54.425Z,99600.20
2018-12-07T13:51:28.067Z,99584.06
2018-12-07T13:54:01.571Z,99565.70
2018-12-07T13:56:35.569Z,99575.05
2018-12-07T13:59:09.338Z,99564.88
2018-12-07T14:01:40.612Z,99560.77
2018-12-07T14:04:11.465Z,99552.01
2018-12-07T14:06:43.269Z,99544.32
2018-12-07T14:09:16.662Z,99544.87
2018-12-07T14:11:51.049Z,99547.97
2018-12-07T14:14:22.884Z,99551.80
2018-12-07T14:16:53.658Z,99539.17
2018-12-07T14:19:25.528Z,99541.09
2018-12-07T14:21:57.477Z,99544.11
2018-12-07T14:24:28.980Z,99527.14
2018-12-07T14:27:00.136Z,99520.81
2018-12-07T14:29:31.604Z,99533.70
2018-12-07T14:32:03.633Z,99515.62
2018-12-07T14:34:35.452Z,99511.29
2018-12-07T14:37:07.058Z,99500.91
2018-12-07T14:39:38.806Z,99497.95
2018-12-07T14:42:10.843Z,99490.84
2018-12-07T14:44:40.749Z,99465.17
2018-12-07T14:47:12.617Z,99487.05
2018-12-07T14:49:44.145Z,99483.73
2018-12-07T14:52:15.873Z,99472.80
2018-12-07T14:54:47.695Z,99492.25
2018-12-07T14:57:19.347Z,99486.00
2018-12-07T14:59:52.905Z,99479.44
2018-12-07T15:02:24.341Z,99489.32
2018-12-07T15:04:55.863Z,99485.22
2018-12-07T15:07:28.287Z,99481.63
2018-12-07T15:09:59.809Z,99484.64
2018-12-07T15:12:31.029Z,99475.92
2018-12-07T15:15:02.604Z,99469.39
2018-12-07T15:17:33.931Z,99476.47
2018-12-07T15:20:06.895Z,99470.95
2018-12-07T15:22:36.951Z,99474.52
2018-12-07T15:25:08.519Z,99469.01
2018-12-07T15:27:40.042Z,99462.13
2018-12-07T15:30:11.339Z,99461.27
2018-12-07T15:32:43.099Z,99449.50
2018-12-07T15:35:14.999Z,99444.58
2018-12-07T15:37:49.326Z,99437.42
2018-12-07T15:40:20.765Z,99424.73
2018-12-07T15:42:52.534Z,99428.56
2018-12-07T15:45:24.431Z,99415.99
2018-12-07T15:47:56.388Z,99422.50
2018-12-07T15:50:28.021Z,99423.87
2018-12-07T15:52:59.938Z,99417.86
2018-12-07T15:55:30.866Z,99418.18
2018-12-07T15:58:02.938Z,99406.61
2018-12-07T16:00:34.886Z,99405.52
2018-12-07T16:03:05.974Z,99395.94
2018-12-07T16:05:37.753Z,99385.80
2018-12-07T16:08:09.515Z,99381.14
2018-12-07T16:10:42.137Z,99366.36
2018-12-07T16:13:13.410Z,99356.52
2018-12-07T16:15:45.339Z,99363.89
2018-12-07T16:18:16.685Z,99359.24
2018-12-07T16:20:48.613Z,99359.42
2018-12-07T16:23:20.472Z,99349.59
2018-12-07T16:25:52.370Z,99342.72
2018-12-07T16:28:24.228Z,99344.95
2018-12-07T16:30:56.530Z,99329.11
2018-12-07T16:33:30.451Z,99329.89
2018-12-07T16:36:01.892Z,99314.36
2018-12-07T16:38:33.691Z,99313.27
2018-12-07T16:41:07.422Z,99303.70
2018-12-07T16:43:38.825Z,99298.75
2018-12-07T16:46:10.654Z,99294.38
2018-12-07T16:48:42.352Z,99295.52
2018-12-07T16:51:14.281Z,99289.23
2018-12-07T16:53:46.121Z,99287.28
2018-12-07T16:56:18.066Z,99263.25
2018-12-07T16:58:51.753Z,99281.00
2018-12-07T17:01:23.140Z,99261.58
2018-12-07T17:03:54.559Z,99261.03
2018-12-07T17:06:25.844Z,99267.53
2018-12-07T17:08:57.576Z,99251.15
2018-12-07T17:11:29.464Z,99253.61
2018-12-07T17:14:01.036Z,99248.97
2018-12-07T17:16:32.830Z,99239.95
2018-12-07T17:19:04.044Z,99233.14
2018-12-07T17:21:35.426Z,99223.55
2018-12-07T17:24:07.257Z,99231.18
2018-12-07T17:26:38.309Z,99216.72
2018-12-07T17:29:12.559Z,99207.47
2018-12-07T17:31:41.916Z,99201.19
2018-12-07T17:34:13.084Z,99194.05
2018-12-07T17:39:48.507Z,99195.16
2018-12-07T17:42:20.415Z,99190.75
2018-12-07T17:44:49.821Z,99188.88
2018-12-07T17:47:23.447Z,99190.23
2018-12-07T17:49:54.512Z,99186.97
2018-12-07T17:52:26.240Z,99188.02
2018-12-07T17:54:55.798Z,99180.37
2018-12-07T17:57:27.609Z,99176.31
2018-12-07T17:59:59.713Z,99168.67
2018-12-07T18:02:31.539Z,99169.77
2018-12-07T18:05:03.562Z,99155.81
2018-12-07T18:07:35.069Z,99162.09
2018-12-07T18:10:08.720Z,99156.16
2018-12-07T18:12:39.813Z,99157.99
2018-12-07T18:15:10.916Z,99157.72
2018-12-07T18:17:42.637Z,99152.27
2018-12-07T18:20:14.819Z,99150.04
2018-12-07T18:22:46.212Z,99142.13
2018-12-07T18:25:17.420Z,99135.27
2018-12-07T18:27:49.163Z,99129.27
2018-12-07T18:30:19.991Z,99123.53
2018-12-07T18:32:51.183Z,99113.98
2018-12-07T18:35:22.942Z,99109.89
2018-12-07T18:37:54.042Z,99104.70
2018-12-07T18:40:25.549Z,99093.52
2018-12-07T18:42:58.951Z,99087.52
2018-12-07T18:45:30.299Z,99093.52
2018-12-07T18:48:01.199Z,99087.48
2018-12-07T18:50:32.243Z,99078.20
2018-12-07T18:53:05.905Z,99068.66
2018-12-07T18:55:37.462Z,99058.55
2018-12-07T18:58:08.990Z,99047.91
2018-12-07T19:00:39.901Z,99055.83
2018-12-07T19:03:11.512Z,99041.13
2018-12-07T19:05:43.340Z,99040.85
2018-12-07T19:08:15.347Z,99044.67
2018-12-07T19:10:46.914Z,99050.41
2018-12-07T19:13:18.693Z,99048.22
2018-12-07T19:15:50.369Z,99051.77
2018-12-07T19:18:21.460Z,99043.06
2018-12-07T19:20:52.160Z,99037.60
2018-12-07T19:23:23.596Z,99027.78
2018-12-07T19:25:55.397Z,99044.97
2018-12-07T19:28:27.163Z,99046.39
2018-12-07T19:30:58.921Z,99028.90
2018-12-07T19:33:32.299Z,99032.75
2018-12-07T19:36:06.409Z,99036.86
2018-12-07T19:38:39.901Z,99050.23
2018-12-07T19:43:40.009Z,99074.55
2018-12-07T19:46:11.983Z,99076.98
2018-12-07T19:48:43.195Z,99095.88
2018-12-07T19:51:15.192Z,99105.67
2018-12-07T19:53:46.832Z,99097.21
2018-12-07T19:56:18.707Z,99114.74
2018-12-07T19:58:49.483Z,99121.57
2018-12-07T20:01:21.257Z,99150.78
2018-12-07T20:03:53.099Z,99155.70
2018-12-07T20:06:26.620Z,99170.14
2018-12-07T20:08:57.808Z,99170.45
2018-12-07T20:11:28.893Z,99196.12
2018-12-07T20:14:00.380Z,99212.78
2018-12-07T20:16:31.362Z,99217.69
2018-12-07T20:19:04.976Z,99225.09
2018-12-07T20:21:36.471Z,99223.70
2018-12-07T20:24:08.165Z,99253.97
2018-12-07T20:29:17.628Z,99271.45
2018-12-07T20:31:49.586Z,99292.09
2018-12-07T20:34:21.613Z,99294.79
2018-12-07T20:36:53.198Z,99293.59
2018-12-07T20:39:24.280Z,99302.10
2018-12-07T20:41:55.347Z,99295.81
2018-12-07T20:44:26.700Z,99324.92
2018-12-07T20:46:57.687Z,99349.73
2018-12-07T20:49:29.387Z,99362.83
2018-12-07T20:52:03.244Z,99384.89
2018-12-07T20:54:34.290Z,99396.61
2018-12-07T20:57:06.139Z,99399.59
2018-12-07T20:59:37.593Z,99388.14
2018-12-07T21:02:09.754Z,99387.93
2018-12-07T21:04:41.761Z,99410.09
2018-12-07T21:07:36.987Z,99399.23
2018-12-07T21:11:03.935Z,99419.49
2018-12-07T21:14:42.396Z,99424.33
2018-12-07T21:17:24.699Z,99442.32
2018-12-07T21:20:12.875Z,99447.45
2018-12-07T21:22:44.909Z,99473.59
2018-12-07T21:25:16.357Z,99493.39
2018-12-07T21:27:48.051Z,99496.25
2018-12-07T21:31:00.213Z,99506.61
2018-12-07T21:34:22.639Z,99516.03
2018-12-07T21:36:53.820Z,99523.77
2018-12-07T21:39:46.168Z,99531.94
2018-12-07T21:42:18.393Z,99542.86
2018-12-07T21:44:50.591Z,99549.06
2018-12-07T21:48:42.116Z,99558.14
2018-12-07T21:51:22.926Z,99560.79
2018-12-07T21:53:54.418Z,99570.70
2018-12-07T21:56:25.793Z,99581.50
2018-12-07T21:58:57.383Z,99593.28
2018-12-07T22:01:29.197Z,99586.04
2018-12-07T22:04:01.504Z,99606.48
2018-12-07T22:06:33.019Z,99617.53
2018-12-07T22:09:04.265Z,99624.91
2018-12-07T22:11:37.904Z,99624.95
2018-12-07T22:17:12.531Z,99630.39
2018-12-07T22:19:46.815Z,99646.62
2018-12-07T22:22:18.164Z,99650.61
2018-12-07T22:24:49.997Z,99666.95
2018-12-07T22:27:21.050Z,99662.00
2018-12-07T22:29:50.790Z,99663.73
2018-12-07T22:32:22.391Z,99669.95
2018-12-07T22:34:54.160Z,99681.95
2018-12-07T22:37:24.954Z,99688.16
2018-12-07T22:39:56.052Z,99688.53
2018-12-07T22:42:26.883Z,99699.47
2018-12-07T22:44:57.981Z,99694.03
2018-12-07T22:47:29.776Z,99699.55
2018-12-07T22:50:01.634Z,99692.75
2018-12-07T22:52:36.531Z,99690.97
2018-12-07T22:55:08.224Z,99693.35
2018-12-07T22:57:40.006Z,99694.06
2018-12-07T23:00:14.049Z,99688.03
2018-12-07T23:02:45.059Z,99696.97
2018-12-07T23:05:18.605Z,99691.67
2018-12-07T23:07:49.975Z,99692.73
2018-12-07T23:10:21.771Z,99710.81
2018-12-07T23:12:56.072Z,99716.14
2018-12-07T23:15:29.995Z,99730.27
2018-12-07T23:17:59.299Z,99723.23
2018-12-07T23:20:33.565Z,99719.95
2018-12-07T23:23:04.919Z,99722.70
2018-12-07T23:25:35.789Z,99720.44
2018-12-07T23:28:06.616Z,99729.79
2018-12-07T23:30:37.691Z,99725.47
2018-12-07T23:33:09.404Z,99730.56
2018-12-07T23:35:40.668Z,99733.12
2018-12-07T23:38:12.479Z,99730.41
2018-12-07T23:40:43.427Z,99726.02
2018-12-07T23:43:15.280Z,99730.83
2018-12-07T23:45:49.379Z,99730.34
2018-12-07T23:53:22.983Z,99732.74
2018-12-07T23:55:54.183Z,99735.63
2018-12-07T23:58:25.820Z,99737.92
